sensor_id;sensor_type;location;lat;lon;timestamp;P1;durP1;ratioP1;P2;durP2;ratioP2
76103;SDS011;64831;44.870;37.336;2023-05-10T00:02:07;1.70;;;1.23;;
76103;SDS011;64831;44.870;37.336;2023-05-10T00:04:33;2.35;;;1.45;;
76103;SDS011;64831;44.870;37.336;2023-05-10T00:06:59;1.58;;;1.20;;
76103;SDS011;64831;44.870;37.336;2023-05-10T00:09:24;1.95;;;1.25;;
76103;SDS011;64831;44.870;37.336;2023-05-10T00:11:50;2.40;;;1.38;;
76103;SDS011;64831;44.870;37.336;2023-05-10T00:14:16;1.90;;;1.30;;
76103;SDS011;64831;44.870;37.336;2023-05-10T00:16:42;2.00;;;1.40;;
76103;SDS011;64831;44.870;37.336;2023-05-10T00:19:08;1.80;;;1.45;;
76103;SDS011;64831;44.870;37.336;2023-05-10T00:21:34;1.65;;;1.45;;
76103;SDS011;64831;44.870;37.336;2023-05-10T00:24:00;3.33;;;1.55;;
76103;SDS011;64831;44.870;37.336;2023-05-10T00:26:26;2.35;;;1.45;;
76103;SDS011;64831;44.870;37.336;2023-05-10T00:28:54;1.92;;;1.33;;
76103;SDS011;64831;44.870;37.336;2023-05-10T00:31:20;2.33;;;1.70;;
76103;SDS011;64831;44.870;37.336;2023-05-10T00:33:46;4.13;;;1.90;;
76103;SDS011;64831;44.870;37.336;2023-05-10T00:36:12;3.53;;;1.60;;
76103;SDS011;64831;44.870;37.336;2023-05-10T00:38:40;4.07;;;1.60;;
76103;SDS011;64831;44.870;37.336;2023-05-10T00:41:06;4.18;;;1.75;;
76103;SDS011;64831;44.870;37.336;2023-05-10T00:43:34;2.60;;;1.85;;
76103;SDS011;64831;44.870;37.336;2023-05-10T00:46:00;3.22;;;1.80;;
76103;SDS011;64831;44.870;37.336;2023-05-10T00:48:26;2.83;;;2.08;;
76103;SDS011;64831;44.870;37.336;2023-05-10T00:50:53;4.72;;;2.35;;
76103;SDS011;64831;44.870;37.336;2023-05-10T00:53:19;4.70;;;2.30;;
76103;SDS011;64831;44.870;37.336;2023-05-10T00:55:46;4.53;;;2.05;;
76103;SDS011;64831;44.870;37.336;2023-05-10T00:58:12;4.18;;;2.10;;
76103;SDS011;64831;44.870;37.336;2023-05-10T01:00:38;7.15;;;1.70;;
76103;SDS011;64831;44.870;37.336;2023-05-10T01:05:35;3.83;;;1.63;;
76103;SDS011;64831;44.870;37.336;2023-05-10T01:08:01;2.17;;;1.52;;
76103;SDS011;64831;44.870;37.336;2023-05-10T01:10:29;0.90;;;0.82;;
76103;SDS011;64831;44.870;37.336;2023-05-10T01:12:55;1.65;;;1.40;;
76103;SDS011;64831;44.870;37.336;2023-05-10T01:15:22;2.95;;;1.80;;
76103;SDS011;64831;44.870;37.336;2023-05-10T01:17:48;3.10;;;1.92;;
76103;SDS011;64831;44.870;37.336;2023-05-10T01:20:14;6.68;;;2.50;;
76103;SDS011;64831;44.870;37.336;2023-05-10T01:25:38;3.10;;;2.03;;
76103;SDS011;64831;44.870;37.336;2023-05-10T01:34:25;2.10;;;1.52;;
76103;SDS011;64831;44.870;37.336;2023-05-10T01:39:37;2.22;;;1.50;;
76103;SDS011;64831;44.870;37.336;2023-05-10T01:42:21;2.90;;;2.00;;
76103;SDS011;64831;44.870;37.336;2023-05-10T01:44:56;6.32;;;2.05;;
76103;SDS011;64831;44.870;37.336;2023-05-10T01:47:31;1.88;;;1.23;;
76103;SDS011;64831;44.870;37.336;2023-05-10T01:50:04;1.73;;;1.20;;
76103;SDS011;64831;44.870;37.336;2023-05-10T01:52:41;2.60;;;1.65;;
76103;SDS011;64831;44.870;37.336;2023-05-10T01:55:13;2.40;;;1.73;;
76103;SDS011;64831;44.870;37.336;2023-05-10T01:57:42;3.30;;;1.83;;
76103;SDS011;64831;44.870;37.336;2023-05-10T02:00:11;1.95;;;1.38;;
76103;SDS011;64831;44.870;37.336;2023-05-10T02:02:40;4.95;;;2.55;;
76103;SDS011;64831;44.870;37.336;2023-05-10T02:05:10;2.13;;;1.48;;
76103;SDS011;64831;44.870;37.336;2023-05-10T02:07:38;3.88;;;2.20;;
76103;SDS011;64831;44.870;37.336;2023-05-10T02:10:06;3.97;;;1.92;;
76103;SDS011;64831;44.870;37.336;2023-05-10T02:12:35;4.95;;;2.20;;
76103;SDS011;64831;44.870;37.336;2023-05-10T02:15:04;4.22;;;2.55;;
76103;SDS011;64831;44.870;37.336;2023-05-10T02:17:31;3.72;;;2.42;;
76103;SDS011;64831;44.870;37.336;2023-05-10T02:19:58;3.03;;;2.17;;
76103;SDS011;64831;44.870;37.336;2023-05-10T02:22:26;3.70;;;2.20;;
76103;SDS011;64831;44.870;37.336;2023-05-10T02:24:53;4.43;;;2.60;;
76103;SDS011;64831;44.870;37.336;2023-05-10T02:27:22;3.13;;;1.95;;
76103;SDS011;64831;44.870;37.336;2023-05-10T02:29:51;6.82;;;2.90;;
76103;SDS011;64831;44.870;37.336;2023-05-10T02:32:17;3.20;;;1.77;;
76103;SDS011;64831;44.870;37.336;2023-05-10T02:34:44;7.22;;;2.70;;
76103;SDS011;64831;44.870;37.336;2023-05-10T02:37:17;4.18;;;2.60;;
76103;SDS011;64831;44.870;37.336;2023-05-10T02:39:48;3.60;;;1.88;;
76103;SDS011;64831;44.870;37.336;2023-05-10T02:42:16;3.17;;;2.10;;
76103;SDS011;64831;44.870;37.336;2023-05-10T02:44:45;2.10;;;1.65;;
76103;SDS011;64831;44.870;37.336;2023-05-10T02:47:15;1.98;;;1.20;;
76103;SDS011;64831;44.870;37.336;2023-05-10T02:49:41;3.47;;;1.23;;
76103;SDS011;64831;44.870;37.336;2023-05-10T02:52:07;1.42;;;1.20;;
76103;SDS011;64831;44.870;37.336;2023-05-10T02:54:46;3.25;;;1.20;;
76103;SDS011;64831;44.870;37.336;2023-05-10T02:57:16;1.35;;;0.90;;
76103;SDS011;64831;44.870;37.336;2023-05-10T02:59:46;1.52;;;1.10;;
76103;SDS011;64831;44.870;37.336;2023-05-10T03:02:12;1.27;;;1.08;;
76103;SDS011;64831;44.870;37.336;2023-05-10T03:04:38;5.90;;;1.45;;
76103;SDS011;64831;44.870;37.336;2023-05-10T03:07:04;1.65;;;1.05;;
76103;SDS011;64831;44.870;37.336;2023-05-10T03:09:31;2.28;;;1.40;;
76103;SDS011;64831;44.870;37.336;2023-05-10T03:12:09;2.08;;;0.90;;
76103;SDS011;64831;44.870;37.336;2023-05-10T03:20:25;2.20;;;1.40;;
76103;SDS011;64831;44.870;37.336;2023-05-10T03:23:01;0.73;;;0.73;;
76103;SDS011;64831;44.870;37.336;2023-05-10T03:25:31;4.82;;;1.70;;
76103;SDS011;64831;44.870;37.336;2023-05-10T03:27:57;3.17;;;1.60;;
76103;SDS011;64831;44.870;37.336;2023-05-10T03:30:26;1.25;;;1.08;;
76103;SDS011;64831;44.870;37.336;2023-05-10T03:32:53;2.40;;;1.45;;
76103;SDS011;64831;44.870;37.336;2023-05-10T03:35:19;5.30;;;1.50;;
76103;SDS011;64831;44.870;37.336;2023-05-10T03:37:45;2.38;;;1.25;;
76103;SDS011;64831;44.870;37.336;2023-05-10T03:40:12;2.67;;;1.35;;
76103;SDS011;64831;44.870;37.336;2023-05-10T03:42:41;3.17;;;1.70;;
76103;SDS011;64831;44.870;37.336;2023-05-10T03:45:07;5.35;;;1.80;;
76103;SDS011;64831;44.870;37.336;2023-05-10T03:47:33;2.38;;;1.63;;
76103;SDS011;64831;44.870;37.336;2023-05-10T03:49:59;1.73;;;1.30;;
76103;SDS011;64831;44.870;37.336;2023-05-10T03:52:25;1.40;;;1.27;;
76103;SDS011;64831;44.870;37.336;2023-05-10T03:54:51;1.77;;;1.17;;
76103;SDS011;64831;44.870;37.336;2023-05-10T03:57:17;1.38;;;1.17;;
76103;SDS011;64831;44.870;37.336;2023-05-10T03:59:43;1.75;;;1.27;;
76103;SDS011;64831;44.870;37.336;2023-05-10T04:02:09;2.40;;;1.60;;
76103;SDS011;64831;44.870;37.336;2023-05-10T04:04:35;8.85;;;1.60;;
76103;SDS011;64831;44.870;37.336;2023-05-10T04:07:01;2.95;;;1.80;;
76103;SDS011;64831;44.870;37.336;2023-05-10T04:09:28;4.32;;;2.10;;
76103;SDS011;64831;44.870;37.336;2023-05-10T04:11:54;2.88;;;1.40;;
76103;SDS011;64831;44.870;37.336;2023-05-10T04:14:19;1.33;;;1.17;;
76103;SDS011;64831;44.870;37.336;2023-05-10T04:16:45;1.52;;;1.42;;
76103;SDS011;64831;44.870;37.336;2023-05-10T04:19:11;2.90;;;1.98;;
76103;SDS011;64831;44.870;37.336;2023-05-10T04:21:37;3.30;;;1.80;;
76103;SDS011;64831;44.870;37.336;2023-05-10T04:24:03;3.15;;;1.95;;
76103;SDS011;64831;44.870;37.336;2023-05-10T04:26:29;3.85;;;1.42;;
76103;SDS011;64831;44.870;37.336;2023-05-10T04:28:55;6.00;;;1.70;;
76103;SDS011;64831;44.870;37.336;2023-05-10T04:31:21;1.63;;;1.35;;
76103;SDS011;64831;44.870;37.336;2023-05-10T04:33:47;9.40;;;2.10;;
76103;SDS011;64831;44.870;37.336;2023-05-10T04:36:13;1.42;;;1.00;;
76103;SDS011;64831;44.870;37.336;2023-05-10T04:38:39;1.70;;;1.17;;
76103;SDS011;64831;44.870;37.336;2023-05-10T04:41:06;1.88;;;1.50;;
76103;SDS011;64831;44.870;37.336;2023-05-10T04:43:33;2.92;;;1.77;;
76103;SDS011;64831;44.870;37.336;2023-05-10T04:45:59;3.80;;;1.98;;
76103;SDS011;64831;44.870;37.336;2023-05-10T04:48:26;2.53;;;1.33;;
76103;SDS011;64831;44.870;37.336;2023-05-10T04:50:52;2.65;;;1.80;;
76103;SDS011;64831;44.870;37.336;2023-05-10T04:53:18;1.73;;;1.23;;
76103;SDS011;64831;44.870;37.336;2023-05-10T04:55:44;3.78;;;2.20;;
76103;SDS011;64831;44.870;37.336;2023-05-10T04:58:11;2.97;;;1.65;;
76103;SDS011;64831;44.870;37.336;2023-05-10T05:00:37;1.85;;;1.25;;
76103;SDS011;64831;44.870;37.336;2023-05-10T05:03:03;2.53;;;1.80;;
76103;SDS011;64831;44.870;37.336;2023-05-10T05:05:28;1.17;;;0.93;;
76103;SDS011;64831;44.870;37.336;2023-05-10T05:07:54;4.13;;;1.00;;
76103;SDS011;64831;44.870;37.336;2023-05-10T05:10:20;2.55;;;1.65;;
76103;SDS011;64831;44.870;37.336;2023-05-10T05:12:46;5.03;;;1.33;;
76103;SDS011;64831;44.870;37.336;2023-05-10T05:15:12;2.33;;;0.93;;
76103;SDS011;64831;44.870;37.336;2023-05-10T05:17:38;3.28;;;1.20;;
76103;SDS011;64831;44.870;37.336;2023-05-10T05:20:04;1.15;;;1.05;;
76103;SDS011;64831;44.870;37.336;2023-05-10T05:22:31;1.02;;;0.90;;
76103;SDS011;64831;44.870;37.336;2023-05-10T05:24:57;2.28;;;1.60;;
76103;SDS011;64831;44.870;37.336;2023-05-10T05:27:27;2.00;;;1.60;;
76103;SDS011;64831;44.870;37.336;2023-05-10T05:29:54;1.40;;;1.30;;
76103;SDS011;64831;44.870;37.336;2023-05-10T05:32:23;1.27;;;1.05;;
76103;SDS011;64831;44.870;37.336;2023-05-10T05:34:50;2.08;;;1.50;;
76103;SDS011;64831;44.870;37.336;2023-05-10T05:37:19;2.25;;;1.67;;
76103;SDS011;64831;44.870;37.336;2023-05-10T05:39:46;4.80;;;1.70;;
76103;SDS011;64831;44.870;37.336;2023-05-10T05:42:12;5.25;;;1.60;;
76103;SDS011;64831;44.870;37.336;2023-05-10T05:44:39;3.17;;;1.50;;
76103;SDS011;64831;44.870;37.336;2023-05-10T05:47:05;2.53;;;1.35;;
76103;SDS011;64831;44.870;37.336;2023-05-10T05:49:32;2.58;;;1.70;;
76103;SDS011;64831;44.870;37.336;2023-05-10T05:51:58;2.45;;;1.10;;
76103;SDS011;64831;44.870;37.336;2023-05-10T05:54:25;3.55;;;1.73;;
76103;SDS011;64831;44.870;37.336;2023-05-10T05:56:58;1.30;;;1.20;;
76103;SDS011;64831;44.870;37.336;2023-05-10T05:59:25;2.22;;;1.70;;
76103;SDS011;64831;44.870;37.336;2023-05-10T06:01:52;2.95;;;1.73;;
76103;SDS011;64831;44.870;37.336;2023-05-10T06:04:18;2.35;;;1.77;;
76103;SDS011;64831;44.870;37.336;2023-05-10T06:06:44;2.15;;;1.35;;
76103;SDS011;64831;44.870;37.336;2023-05-10T06:09:10;3.08;;;1.50;;
76103;SDS011;64831;44.870;37.336;2023-05-10T06:11:36;3.90;;;1.75;;
76103;SDS011;64831;44.870;37.336;2023-05-10T06:14:03;6.25;;;1.35;;
76103;SDS011;64831;44.870;37.336;2023-05-10T06:16:33;2.10;;;1.45;;
76103;SDS011;64831;44.870;37.336;2023-05-10T06:18:59;0.90;;;0.90;;
76103;SDS011;64831;44.870;37.336;2023-05-10T06:21:25;2.42;;;1.10;;
76103;SDS011;64831;44.870;37.336;2023-05-10T06:23:51;2.15;;;1.20;;
76103;SDS011;64831;44.870;37.336;2023-05-10T06:26:17;0.95;;;0.85;;
76103;SDS011;64831;44.870;37.336;2023-05-10T06:28:43;4.20;;;1.10;;
76103;SDS011;64831;44.870;37.336;2023-05-10T06:31:09;2.10;;;1.33;;
76103;SDS011;64831;44.870;37.336;2023-05-10T06:33:37;5.13;;;1.40;;
76103;SDS011;64831;44.870;37.336;2023-05-10T06:36:02;2.28;;;1.30;;
76103;SDS011;64831;44.870;37.336;2023-05-10T06:38:29;1.88;;;1.20;;
76103;SDS011;64831;44.870;37.336;2023-05-10T06:40:54;0.80;;;0.80;;
76103;SDS011;64831;44.870;37.336;2023-05-10T06:43:20;1.40;;;1.10;;
76103;SDS011;64831;44.870;37.336;2023-05-10T06:45:47;2.92;;;1.27;;
76103;SDS011;64831;44.870;37.336;2023-05-10T06:48:13;1.85;;;1.38;;
76103;SDS011;64831;44.870;37.336;2023-05-10T06:50:39;1.77;;;1.25;;
76103;SDS011;64831;44.870;37.336;2023-05-10T06:53:05;1.23;;;0.82;;
76103;SDS011;64831;44.870;37.336;2023-05-10T06:55:31;1.98;;;1.20;;
76103;SDS011;64831;44.870;37.336;2023-05-10T06:57:57;1.40;;;0.93;;
76103;SDS011;64831;44.870;37.336;2023-05-10T07:00:23;2.38;;;0.98;;
76103;SDS011;64831;44.870;37.336;2023-05-10T07:02:49;1.13;;;0.90;;
76103;SDS011;64831;44.870;37.336;2023-05-10T07:05:15;6.60;;;1.20;;
76103;SDS011;64831;44.870;37.336;2023-05-10T07:07:40;5.53;;;1.10;;
76103;SDS011;64831;44.870;37.336;2023-05-10T07:10:06;1.10;;;1.00;;
76103;SDS011;64831;44.870;37.336;2023-05-10T07:12:33;2.08;;;1.20;;
76103;SDS011;64831;44.870;37.336;2023-05-10T07:14:59;2.03;;;1.00;;
76103;SDS011;64831;44.870;37.336;2023-05-10T07:17:25;3.67;;;1.45;;
76103;SDS011;64831;44.870;37.336;2023-05-10T07:19:50;1.60;;;1.27;;
76103;SDS011;64831;44.870;37.336;2023-05-10T07:22:16;2.72;;;1.27;;
76103;SDS011;64831;44.870;37.336;2023-05-10T07:24:42;3.85;;;1.40;;
76103;SDS011;64831;44.870;37.336;2023-05-10T07:27:08;3.58;;;1.10;;
76103;SDS011;64831;44.870;37.336;2023-05-10T07:29:35;1.48;;;1.38;;
76103;SDS011;64831;44.870;37.336;2023-05-10T07:32:01;2.00;;;1.63;;
76103;SDS011;64831;44.870;37.336;2023-05-10T07:34:27;2.08;;;1.20;;
76103;SDS011;64831;44.870;37.336;2023-05-10T07:36:55;5.97;;;1.70;;
76103;SDS011;64831;44.870;37.336;2023-05-10T07:39:23;1.67;;;1.25;;
76103;SDS011;64831;44.870;37.336;2023-05-10T07:41:49;3.08;;;1.17;;
76103;SDS011;64831;44.870;37.336;2023-05-10T07:44:14;1.02;;;0.95;;
76103;SDS011;64831;44.870;37.336;2023-05-10T07:46:43;0.77;;;0.73;;
76103;SDS011;64831;44.870;37.336;2023-05-10T07:49:09;4.65;;;1.50;;
76103;SDS011;64831;44.870;37.336;2023-05-10T07:51:35;2.15;;;1.65;;
76103;SDS011;64831;44.870;37.336;2023-05-10T07:54:01;1.95;;;1.20;;
76103;SDS011;64831;44.870;37.336;2023-05-10T07:56:28;1.88;;;1.23;;
76103;SDS011;64831;44.870;37.336;2023-05-10T07:58:55;1.52;;;1.08;;
76103;SDS011;64831;44.870;37.336;2023-05-10T08:01:22;1.65;;;1.30;;
76103;SDS011;64831;44.870;37.336;2023-05-10T08:03:48;2.15;;;1.00;;
76103;SDS011;64831;44.870;37.336;2023-05-10T08:06:17;1.67;;;0.95;;
76103;SDS011;64831;44.870;37.336;2023-05-10T08:08:45;1.23;;;0.90;;
76103;SDS011;64831;44.870;37.336;2023-05-10T08:11:17;1.98;;;1.52;;
76103;SDS011;64831;44.870;37.336;2023-05-10T08:13:46;3.70;;;1.53;;
76103;SDS011;64831;44.870;37.336;2023-05-10T08:16:14;1.20;;;1.10;;
76103;SDS011;64831;44.870;37.336;2023-05-10T08:18:40;4.45;;;1.55;;
76103;SDS011;64831;44.870;37.336;2023-05-10T08:21:06;2.63;;;1.92;;
76103;SDS011;64831;44.870;37.336;2023-05-10T08:23:32;7.85;;;1.73;;
76103;SDS011;64831;44.870;37.336;2023-05-10T08:25:58;1.90;;;1.38;;
76103;SDS011;64831;44.870;37.336;2023-05-10T08:28:24;2.63;;;1.90;;
76103;SDS011;64831;44.870;37.336;2023-05-10T08:30:50;3.00;;;1.77;;
76103;SDS011;64831;44.870;37.336;2023-05-10T08:33:17;3.25;;;1.80;;
76103;SDS011;64831;44.870;37.336;2023-05-10T08:35:44;5.10;;;1.55;;
76103;SDS011;64831;44.870;37.336;2023-05-10T08:38:10;5.15;;;2.15;;
76103;SDS011;64831;44.870;37.336;2023-05-10T08:40:42;5.45;;;2.08;;
76103;SDS011;64831;44.870;37.336;2023-05-10T08:43:11;3.33;;;2.00;;
76103;SDS011;64831;44.870;37.336;2023-05-10T08:45:46;4.70;;;2.70;;
76103;SDS011;64831;44.870;37.336;2023-05-10T08:48:14;5.55;;;2.45;;
76103;SDS011;64831;44.870;37.336;2023-05-10T08:50:42;4.85;;;2.50;;
76103;SDS011;64831;44.870;37.336;2023-05-10T08:53:12;4.25;;;2.25;;
76103;SDS011;64831;44.870;37.336;2023-05-10T08:55:38;3.13;;;1.80;;
76103;SDS011;64831;44.870;37.336;2023-05-10T08:58:08;6.88;;;2.20;;
76103;SDS011;64831;44.870;37.336;2023-05-10T09:00:35;10.55;;;2.20;;
76103;SDS011;64831;44.870;37.336;2023-05-10T09:03:02;3.47;;;1.88;;
76103;SDS011;64831;44.870;37.336;2023-05-10T09:05:30;4.05;;;1.38;;
76103;SDS011;64831;44.870;37.336;2023-05-10T09:07:56;1.42;;;1.30;;
76103;SDS011;64831;44.870;37.336;2023-05-10T09:10:22;2.17;;;1.70;;
76103;SDS011;64831;44.870;37.336;2023-05-10T09:12:51;1.80;;;1.20;;
76103;SDS011;64831;44.870;37.336;2023-05-10T09:15:18;2.30;;;0.98;;
76103;SDS011;64831;44.870;37.336;2023-05-10T09:17:45;4.43;;;1.90;;
76103;SDS011;64831;44.870;37.336;2023-05-10T09:20:12;3.92;;;2.10;;
76103;SDS011;64831;44.870;37.336;2023-05-10T09:22:39;4.82;;;2.65;;
76103;SDS011;64831;44.870;37.336;2023-05-10T09:25:09;4.28;;;2.60;;
76103;SDS011;64831;44.870;37.336;2023-05-10T09:27:36;3.20;;;1.92;;
76103;SDS011;64831;44.870;37.336;2023-05-10T09:30:04;9.85;;;2.55;;
76103;SDS011;64831;44.870;37.336;2023-05-10T09:32:38;3.80;;;2.60;;
76103;SDS011;64831;44.870;37.336;2023-05-10T09:35:15;4.75;;;2.83;;
76103;SDS011;64831;44.870;37.336;2023-05-10T09:37:43;5.55;;;3.22;;
76103;SDS011;64831;44.870;37.336;2023-05-10T09:40:12;6.22;;;2.03;;
76103;SDS011;64831;44.870;37.336;2023-05-10T09:42:41;4.30;;;2.67;;
76103;SDS011;64831;44.870;37.336;2023-05-10T09:45:08;3.55;;;2.03;;
76103;SDS011;64831;44.870;37.336;2023-05-10T09:47:34;6.90;;;2.80;;
76103;SDS011;64831;44.870;37.336;2023-05-10T09:50:02;7.25;;;2.40;;
76103;SDS011;64831;44.870;37.336;2023-05-10T09:52:30;3.58;;;2.42;;
76103;SDS011;64831;44.870;37.336;2023-05-10T09:55:10;3.40;;;2.20;;
76103;SDS011;64831;44.870;37.336;2023-05-10T09:57:36;3.05;;;2.20;;
76103;SDS011;64831;44.870;37.336;2023-05-10T10:00:03;5.80;;;2.55;;
76103;SDS011;64831;44.870;37.336;2023-05-10T10:02:39;3.17;;;2.40;;
76103;SDS011;64831;44.870;37.336;2023-05-10T10:05:06;5.65;;;2.20;;
76103;SDS011;64831;44.870;37.336;2023-05-10T10:07:32;6.10;;;2.58;;
76103;SDS011;64831;44.870;37.336;2023-05-10T10:09:59;3.05;;;2.33;;
76103;SDS011;64831;44.870;37.336;2023-05-10T10:12:25;3.00;;;2.10;;
76103;SDS011;64831;44.870;37.336;2023-05-10T10:14:52;3.65;;;2.58;;
76103;SDS011;64831;44.870;37.336;2023-05-10T10:17:18;2.97;;;2.28;;
76103;SDS011;64831;44.870;37.336;2023-05-10T10:19:45;7.00;;;2.78;;
76103;SDS011;64831;44.870;37.336;2023-05-10T10:22:11;5.82;;;2.88;;
76103;SDS011;64831;44.870;37.336;2023-05-10T10:24:38;11.27;;;2.85;;
76103;SDS011;64831;44.870;37.336;2023-05-10T10:27:15;1.98;;;1.60;;
76103;SDS011;64831;44.870;37.336;2023-05-10T10:30:23;4.57;;;3.15;;
76103;SDS011;64831;44.870;37.336;2023-05-10T10:35:28;2.17;;;1.67;;
76103;SDS011;64831;44.870;37.336;2023-05-10T10:37:55;6.05;;;3.10;;
76103;SDS011;64831;44.870;37.336;2023-05-10T10:40:27;6.63;;;2.83;;
76103;SDS011;64831;44.870;37.336;2023-05-10T10:42:57;7.13;;;2.80;;
76103;SDS011;64831;44.870;37.336;2023-05-10T10:45:43;4.95;;;2.60;;
76103;SDS011;64831;44.870;37.336;2023-05-10T10:48:32;7.18;;;2.50;;
76103;SDS011;64831;44.870;37.336;2023-05-10T10:50:58;4.82;;;2.40;;
76103;SDS011;64831;44.870;37.336;2023-05-10T10:53:27;5.05;;;2.80;;
76103;SDS011;64831;44.870;37.336;2023-05-10T10:56:09;3.83;;;3.13;;
76103;SDS011;64831;44.870;37.336;2023-05-10T10:58:40;5.15;;;2.35;;
76103;SDS011;64831;44.870;37.336;2023-05-10T11:01:16;3.10;;;1.70;;
76103;SDS011;64831;44.870;37.336;2023-05-10T11:06:31;2.75;;;2.35;;
76103;SDS011;64831;44.870;37.336;2023-05-10T11:08:58;5.38;;;3.00;;
76103;SDS011;64831;44.870;37.336;2023-05-10T11:11:32;4.85;;;2.33;;
76103;SDS011;64831;44.870;37.336;2023-05-10T11:14:04;5.70;;;3.00;;
76103;SDS011;64831;44.870;37.336;2023-05-10T11:16:43;2.83;;;2.00;;
76103;SDS011;64831;44.870;37.336;2023-05-10T11:19:10;3.87;;;2.97;;
76103;SDS011;64831;44.870;37.336;2023-05-10T11:24:31;4.90;;;3.05;;
76103;SDS011;64831;44.870;37.336;2023-05-10T11:26:58;5.50;;;3.13;;
76103;SDS011;64831;44.870;37.336;2023-05-10T11:29:26;10.13;;;3.40;;
76103;SDS011;64831;44.870;37.336;2023-05-10T11:31:51;4.75;;;2.70;;
76103;SDS011;64831;44.870;37.336;2023-05-10T11:34:27;2.22;;;1.88;;
76103;SDS011;64831;44.870;37.336;2023-05-10T11:36:55;6.22;;;3.45;;
76103;SDS011;64831;44.870;37.336;2023-05-10T11:39:29;5.15;;;2.67;;
76103;SDS011;64831;44.870;37.336;2023-05-10T11:41:56;5.22;;;2.80;;
76103;SDS011;64831;44.870;37.336;2023-05-10T11:44:23;9.00;;;2.80;;
76103;SDS011;64831;44.870;37.336;2023-05-10T11:46:59;2.85;;;2.40;;
76103;SDS011;64831;44.870;37.336;2023-05-10T11:49:28;13.13;;;2.80;;
76103;SDS011;64831;44.870;37.336;2023-05-10T11:52:03;5.65;;;2.70;;
76103;SDS011;64831;44.870;37.336;2023-05-10T11:54:32;4.75;;;1.05;;
76103;SDS011;64831;44.870;37.336;2023-05-10T11:57:00;7.75;;;2.60;;
76103;SDS011;64831;44.870;37.336;2023-05-10T11:59:26;10.25;;;2.97;;
76103;SDS011;64831;44.870;37.336;2023-05-10T12:01:52;3.88;;;2.72;;
76103;SDS011;64831;44.870;37.336;2023-05-10T12:04:18;10.88;;;2.85;;
76103;SDS011;64831;44.870;37.336;2023-05-10T12:06:44;6.70;;;3.15;;
76103;SDS011;64831;44.870;37.336;2023-05-10T12:09:11;8.27;;;2.80;;
76103;SDS011;64831;44.870;37.336;2023-05-10T12:11:39;2.80;;;1.83;;
76103;SDS011;64831;44.870;37.336;2023-05-10T12:14:06;5.90;;;2.22;;
76103;SDS011;64831;44.870;37.336;2023-05-10T12:16:33;4.45;;;2.63;;
76103;SDS011;64831;44.870;37.336;2023-05-10T12:18:59;4.15;;;2.38;;
76103;SDS011;64831;44.870;37.336;2023-05-10T12:21:27;12.52;;;3.55;;
76103;SDS011;64831;44.870;37.336;2023-05-10T12:23:54;5.10;;;3.15;;
76103;SDS011;64831;44.870;37.336;2023-05-10T12:26:24;6.55;;;3.20;;
76103;SDS011;64831;44.870;37.336;2023-05-10T12:28:54;3.42;;;2.47;;
76103;SDS011;64831;44.870;37.336;2023-05-10T12:31:20;4.82;;;3.20;;
76103;SDS011;64831;44.870;37.336;2023-05-10T12:33:46;8.77;;;3.35;;
76103;SDS011;64831;44.870;37.336;2023-05-10T12:36:14;3.35;;;2.22;;
76103;SDS011;64831;44.870;37.336;2023-05-10T12:38:42;5.53;;;2.88;;
76103;SDS011;64831;44.870;37.336;2023-05-10T12:41:16;6.13;;;3.40;;
76103;SDS011;64831;44.870;37.336;2023-05-10T12:43:43;4.95;;;3.38;;
76103;SDS011;64831;44.870;37.336;2023-05-10T12:46:11;9.00;;;3.58;;
76103;SDS011;64831;44.870;37.336;2023-05-10T12:48:40;13.93;;;3.30;;
76103;SDS011;64831;44.870;37.336;2023-05-10T12:51:07;8.82;;;2.35;;
76103;SDS011;64831;44.870;37.336;2023-05-10T12:53:35;5.32;;;2.80;;
76103;SDS011;64831;44.870;37.336;2023-05-10T12:56:01;1.92;;;1.38;;
76103;SDS011;64831;44.870;37.336;2023-05-10T12:58:27;3.70;;;2.38;;
76103;SDS011;64831;44.870;37.336;2023-05-10T13:00:53;6.20;;;3.15;;
76103;SDS011;64831;44.870;37.336;2023-05-10T13:03:21;6.50;;;2.95;;
76103;SDS011;64831;44.870;37.336;2023-05-10T13:05:48;6.75;;;3.50;;
76103;SDS011;64831;44.870;37.336;2023-05-10T13:08:14;4.63;;;3.00;;
76103;SDS011;64831;44.870;37.336;2023-05-10T13:10:40;15.10;;;2.92;;
76103;SDS011;64831;44.870;37.336;2023-05-10T13:13:06;3.33;;;1.88;;
76103;SDS011;64831;44.870;37.336;2023-05-10T13:15:32;3.83;;;2.88;;
76103;SDS011;64831;44.870;37.336;2023-05-10T13:17:58;3.10;;;2.45;;
76103;SDS011;64831;44.870;37.336;2023-05-10T13:20:25;4.53;;;2.38;;
76103;SDS011;64831;44.870;37.336;2023-05-10T13:22:51;7.38;;;3.13;;
76103;SDS011;64831;44.870;37.336;2023-05-10T13:25:17;9.73;;;3.50;;
76103;SDS011;64831;44.870;37.336;2023-05-10T13:27:43;8.18;;;3.17;;
76103;SDS011;64831;44.870;37.336;2023-05-10T13:30:09;11.32;;;4.82;;
76103;SDS011;64831;44.870;37.336;2023-05-10T13:32:36;7.13;;;3.50;;
76103;SDS011;64831;44.870;37.336;2023-05-10T13:35:03;6.03;;;2.40;;
76103;SDS011;64831;44.870;37.336;2023-05-10T13:37:30;4.70;;;2.95;;
76103;SDS011;64831;44.870;37.336;2023-05-10T13:39:56;3.97;;;2.53;;
76103;SDS011;64831;44.870;37.336;2023-05-10T13:42:22;8.25;;;3.55;;
76103;SDS011;64831;44.870;37.336;2023-05-10T13:44:49;5.10;;;3.03;;
76103;SDS011;64831;44.870;37.336;2023-05-10T13:47:15;7.72;;;3.60;;
76103;SDS011;64831;44.870;37.336;2023-05-10T13:49:41;4.15;;;2.50;;
76103;SDS011;64831;44.870;37.336;2023-05-10T13:52:07;3.90;;;3.10;;
76103;SDS011;64831;44.870;37.336;2023-05-10T13:54:35;5.43;;;3.60;;
76103;SDS011;64831;44.870;37.336;2023-05-10T13:57:02;1.80;;;1.23;;
76103;SDS011;64831;44.870;37.336;2023-05-10T13:59:28;4.65;;;2.88;;
76103;SDS011;64831;44.870;37.336;2023-05-10T14:01:57;4.82;;;3.17;;
76103;SDS011;64831;44.870;37.336;2023-05-10T14:04:23;7.10;;;2.38;;
76103;SDS011;64831;44.870;37.336;2023-05-10T14:06:49;5.32;;;2.80;;
76103;SDS011;64831;44.870;37.336;2023-05-10T14:09:16;8.60;;;3.25;;
76103;SDS011;64831;44.870;37.336;2023-05-10T14:11:41;3.83;;;3.03;;
76103;SDS011;64831;44.870;37.336;2023-05-10T14:14:11;8.10;;;2.70;;
76103;SDS011;64831;44.870;37.336;2023-05-10T14:16:41;3.47;;;2.50;;
76103;SDS011;64831;44.870;37.336;2023-05-10T14:19:08;8.38;;;2.72;;
76103;SDS011;64831;44.870;37.336;2023-05-10T14:21:35;2.95;;;2.50;;
76103;SDS011;64831;44.870;37.336;2023-05-10T14:24:01;4.28;;;2.60;;
76103;SDS011;64831;44.870;37.336;2023-05-10T14:26:27;2.38;;;2.10;;
76103;SDS011;64831;44.870;37.336;2023-05-10T14:28:53;6.35;;;2.78;;
76103;SDS011;64831;44.870;37.336;2023-05-10T14:31:19;4.32;;;2.90;;
76103;SDS011;64831;44.870;37.336;2023-05-10T14:33:46;8.00;;;2.95;;
76103;SDS011;64831;44.870;37.336;2023-05-10T14:36:12;5.35;;;2.97;;
76103;SDS011;64831;44.870;37.336;2023-05-10T14:38:39;4.63;;;2.70;;
76103;SDS011;64831;44.870;37.336;2023-05-10T14:41:05;5.20;;;2.65;;
76103;SDS011;64831;44.870;37.336;2023-05-10T14:43:31;4.88;;;2.50;;
76103;SDS011;64831;44.870;37.336;2023-05-10T14:45:57;7.13;;;2.78;;
76103;SDS011;64831;44.870;37.336;2023-05-10T14:48:23;2.95;;;2.00;;
76103;SDS011;64831;44.870;37.336;2023-05-10T14:50:49;11.02;;;4.78;;
76103;SDS011;64831;44.870;37.336;2023-05-10T14:53:15;3.72;;;2.67;;
76103;SDS011;64831;44.870;37.336;2023-05-10T14:55:41;6.38;;;3.13;;
76103;SDS011;64831;44.870;37.336;2023-05-10T14:58:07;3.83;;;3.00;;
76103;SDS011;64831;44.870;37.336;2023-05-10T15:00:33;7.05;;;3.47;;
76103;SDS011;64831;44.870;37.336;2023-05-10T15:02:59;6.13;;;2.92;;
76103;SDS011;64831;44.870;37.336;2023-05-10T15:05:25;5.38;;;3.22;;